Flight Track Log - Related Links

Times and Time Zones

All times are in EDT time to prevent confusion due to time zone crossing. See the JBU59 flight status page for this flight to view local times or setup timezone preferences in your user account.

Time Position Orientation Groundspeed Altitude Reporting Facility
EDT Latitude Longitude Course Direction KTS MPH feet Rate Location/Type
Fri 07:55:59 PM 44.3528 -73.1861 196° South 244 281 6,500  Level Boston Center
Fri 07:56:00 PM 44.2362 -73.2284 190° South  Level FlightAware Approximate
Fri 07:56:59 PM 44.2817 -73.2144 196° South 261 300 10,000  Level Boston Center
Fri 07:57:00 PM 44.1624 -73.2641 195° South  Level FlightAware Approximate
Fri 07:57:59 PM 44.2022 -73.2481 197° South 287 330 11,600  Level Boston Center
Fri 07:58:00 PM 44.0859 -73.2928 195° South  Level FlightAware Approximate
Fri 07:58:59 PM 44.1083 -73.2844 196° South 333 383 14,200  Level Boston Center
Fri 07:59:00 PM 44.0090 -73.3193 194° South  Level FlightAware Approximate
Fri 07:59:59 PM 44.0036 -73.3261 196° South 351 404 18,100  Level Boston Center
Fri 08:00:00 PM 43.9319 -73.3449 193° South  Level FlightAware Approximate
Fri 08:00:59 PM 43.9139 -73.3594 195° South 353 406 20,500  Level Boston Center
Fri 08:01:00 PM 43.8556 -73.3745 196° South  Level FlightAware Approximate
Fri 08:01:59 PM 43.8178 -73.3983 196° South 353 406 22,500  Level Boston Center
Fri 08:02:59 PM 43.7508 -73.4258 197° South 358 412 23,700 1,650 Climbing Boston Center
Fri 08:03:59 PM 43.6294 -73.4697 195° South 368 423 25,800 1,850 Climbing Boston Center
Fri 08:04:59 PM 43.5269 -73.5081 195° South 374 430 27,400 1,000 Climbing Boston Center
Fri 08:06:11 PM 43.4225 -73.5464 195° South 379 436 28,000 273 Climbing Boston Center
Fri 08:07:11 PM 43.2928 -73.5981 196° South 391 450 28,000  Level Boston Center
Fri 08:08:11 PM 43.1819 -73.6389 195° South 403 464 28,000  Level Boston Center
Fri 08:09:11 PM 43.0711 -73.6822 196° South 409 471 28,000  Level Boston Center
Fri 08:10:11 PM 42.9622 -73.7253 196° South 415 478 28,000  Level Boston Center
Fri 08:11:11 PM 42.8511 -73.7656 195° South 415 478 28,000  Level Boston Center
Fri 08:12:23 PM 42.7383 -73.8028 194° South 421 484 28,000  Level Boston Center
Fri 08:13:23 PM 42.6025 -73.8108 182° South 421 484 28,000 -100 Level Boston Center
Fri 08:14:23 PM 42.4756 -73.8136 181° South 416 479 27,800 -600 Descending Boston Center
Fri 08:15:23 PM 42.3586 -73.8139 180° South 421 484 26,800 -900 Descending Boston Center
Fri 08:16:23 PM 42.2442 -73.8169 181° South 421 484 26,000 -400 Descending Boston Center
Fri 08:17:23 PM 42.1333 -73.8286 184° South 415 478 26,000  Level Boston Center
Fri 08:18:23 PM 42.0350 -73.8600 193° South 410 472 26,000  Level Boston Center
Fri 08:19:55 PM 41.8589 -73.9153 193° South 406 467 26,000  Level New York Center
Fri 08:20:55 PM 41.7497 -73.9492 193° South 406 467 26,000 -661 Level New York Center
Fri 08:21:53 PM 41.6428 -73.9828 193° South 406 467 24,700 -1,525 Descending New York Center
Fri 08:22:53 PM 41.5544 -74.0117 194° South 395 455 23,000 -1,785 Descending New York Center
Fri 08:23:54 PM 41.4558 -74.0403 192° South 373 429 21,100 -1,475 Descending New York Center
Fri 08:24:55 PM 41.3586 -74.0881 200° South 378 435 20,000 -545 Descending New York Center
Fri 08:25:55 PM 41.2778 -74.1531 211° Southwest 363 418 20,000 -102 Level New York Center
Fri 08:26:53 PM 41.1797 -74.1536 180° South 338 389 19,800 -356 Descending New York Center
Fri 08:27:53 PM 41.0842 -74.1489 178° South 343 395 19,300 -538 Descending New York Center
Fri 08:28:11 PM 41.0333 -74.1500 181° South 352 405 19,100 -231 Descending New York TRACON
Fri 08:29:11 PM 40.9500 -74.1167 163° South 330 380 19,000 -750 Descending New York TRACON
Fri 08:30:11 PM 40.8667 -74.0833 163° South 300 345 17,600 -1,550 Descending New York TRACON
Fri 08:31:11 PM 40.8333 -73.9833 114° Southeast 320 368 15,900 -1,600 Descending New York TRACON
Fri 08:32:11 PM 40.8000 -73.8667 111° Southeast 316 364 14,400 -1,450 Descending New York TRACON
Fri 08:33:11 PM 40.7500 -73.7833 128° Southeast 288 331 13,000 -1,000 Descending New York TRACON
Fri 08:34:11 PM 40.6833 -73.7333 150° Southeast 274 315 12,400 -1,100 Descending New York TRACON
Fri 08:35:11 PM 40.6167 -73.7167 169° South 337 388 10,800 -1,600 Descending New York TRACON
Fri 08:36:11 PM 40.5500 -73.6833 159° South 245 282 9,200 -1,400 Descending New York TRACON
Fri 08:37:11 PM 40.4833 -73.6667 169° South 251 289 8,000 -1,200 Descending New York TRACON
Fri 08:38:11 PM 40.4167 -73.6833 191° South 247 284 6,800 -1,450 Descending New York TRACON
Fri 08:39:11 PM 40.3833 -73.7500 237° Southwest 255 293 5,100 -1,650 Descending New York TRACON
Fri 08:40:11 PM 40.3833 -73.8500 270° West 247 284 3,500 -1,200 Descending New York TRACON
Fri 08:41:11 PM 40.4000 -73.9333 285° West 253 291 2,700 -750 Descending New York TRACON
Fri 08:42:11 PM 40.4500 -73.9000 27° Northeast 206 237 2,000 -700 Descending New York TRACON

Login

Don't have an account? Register now (free) for customized features, flight alerts, and more!